Terminal Aerodrome Forecast
Issued by NWS Charleston, WV

Current Version | Previous Version | Graphics & Text | Print | Product List | Glossary On
Versions: 1 2 3 4 5 6 7 8 9 10 11 12 13 14 15 16 17 18 19 20 21 22 23 24
000
FTUS41 KRLX 300200 AAA
TAFEKN
TAF AMD
KEKN 300241Z 3003/3024 00000KT P6SM FEW050
     FM300500 00000KT 5SM BR FEW050
     FM300600 00000KT 1/4SM FG OVC001
     FM301200 00000KT 2SM BR BKN003
     FM301300 VRB03KT P6SM SCT060
     FM301900 29006KT P6SM VCSH BKN070
     FM302300 VRB03KT P6SM BKN040=

USA.gov is the U.S. government's official web portal to all federal, state and local government web resources and services.